Heralds Prairie, Illinois
Current Conditions -  °F | °C
As of 12:35 PM on Sunday 21 Dec 2014 (Local Time) from KCUL Reporting Station
Clear Clear  
Wind Chill: 40°   Ceiling: Unl
Heat Index: 44°   Visibility: 10mi
Dew Point: 32°   Wind: 7mph
Humidity: 63%   Direction: 140°SE
Pressure: 30.17"   Gusts: NA
Location:  37.9739°N, 88.3193°W
Report Text: KCUL 211835Z AUTO 14006KT 10SM CLR 07/00 A3017 RMK AO2 T00670000
Loading
Personal Weather Stations






























Interactive Weather Map New forecast layout! Learn more

10-Day Weather Forecast

Advertisements
Track Severe Weather on mobile